sensor_id;sensor_type;location;lat;lon;timestamp;pressure;altitude;pressure_sealevel;temperature;humidity
76358;BME280;65185;21.060;105.826;2023-11-19T00:00:12;102255.50;;;19.75;86.14
76358;BME280;65185;21.060;105.826;2023-11-19T00:02:40;102259.78;;;19.79;86.46
76358;BME280;65185;21.060;105.826;2023-11-19T00:05:08;102254.50;;;19.82;85.98
76358;BME280;65185;21.060;105.826;2023-11-19T00:07:37;102264.97;;;19.85;85.95
76358;BME280;65185;21.060;105.826;2023-11-19T00:10:09;102261.44;;;19.85;85.96
76358;BME280;65185;21.060;105.826;2023-11-19T00:12:41;102256.13;;;19.89;86.20
76358;BME280;65185;21.060;105.826;2023-11-19T00:15:08;102263.97;;;19.91;85.93
76358;BME280;65185;21.060;105.826;2023-11-19T00:17:47;102255.25;;;19.89;85.79
76358;BME280;65185;21.060;105.826;2023-11-19T00:20:18;102261.38;;;19.89;85.86
76358;BME280;65185;21.060;105.826;2023-11-19T00:22:45;102263.09;;;19.90;85.72
76358;BME280;65185;21.060;105.826;2023-11-19T00:25:21;102269.25;;;19.91;85.84
76358;BME280;65185;21.060;105.826;2023-11-19T00:27:48;102266.56;;;19.94;85.69
76358;BME280;65185;21.060;105.826;2023-11-19T00:30:16;102273.47;;;19.98;85.29
76358;BME280;65185;21.060;105.826;2023-11-19T00:32:43;102276.09;;;20.00;85.27
76358;BME280;65185;21.060;105.826;2023-11-19T00:35:11;102283.06;;;20.02;85.29
76358;BME280;65185;21.060;105.826;2023-11-19T00:37:40;102283.84;;;20.07;84.98
76358;BME280;65185;21.060;105.826;2023-11-19T00:40:08;102286.44;;;20.10;84.93
76358;BME280;65185;21.060;105.826;2023-11-19T00:42:36;102287.28;;;20.12;84.77
76358;BME280;65185;21.060;105.826;2023-11-19T00:45:03;102293.41;;;20.11;84.68
76358;BME280;65185;21.060;105.826;2023-11-19T00:47:34;102297.75;;;20.14;84.97
76358;BME280;65185;21.060;105.826;2023-11-19T00:50:02;102299.47;;;20.15;85.33
76358;BME280;65185;21.060;105.826;2023-11-19T00:52:29;102309.13;;;20.17;85.23
76358;BME280;65185;21.060;105.826;2023-11-19T00:54:56;102307.38;;;20.18;85.49
76358;BME280;65185;21.060;105.826;2023-11-19T00:57:22;102311.75;;;20.17;85.31
76358;BME280;65185;21.060;105.826;2023-11-19T00:59:50;102311.72;;;20.19;85.73
76358;BME280;65185;21.060;105.826;2023-11-19T01:02:16;102309.13;;;20.17;85.63
76358;BME280;65185;21.060;105.826;2023-11-19T01:04:43;102314.38;;;20.17;85.72
76358;BME280;65185;21.060;105.826;2023-11-19T01:07:11;102319.59;;;20.20;85.69
76358;BME280;65185;21.060;105.826;2023-11-19T01:09:41;102311.69;;;20.20;85.76
76358;BME280;65185;21.060;105.826;2023-11-19T01:12:08;102311.66;;;20.23;85.66
76358;BME280;65185;21.060;105.826;2023-11-19T01:14:39;102315.03;;;20.30;85.47
76358;BME280;65185;21.060;105.826;2023-11-19T01:17:05;102319.38;;;20.32;84.57
76358;BME280;65185;21.060;105.826;2023-11-19T01:19:32;102316.63;;;20.37;84.29
76358;BME280;65185;21.060;105.826;2023-11-19T01:21:59;102315.59;;;20.45;84.84
76358;BME280;65185;21.060;105.826;2023-11-19T01:24:25;102322.50;;;20.51;83.40
76358;BME280;65185;21.060;105.826;2023-11-19T01:26:54;102314.47;;;20.58;83.41
76358;BME280;65185;21.060;105.826;2023-11-19T01:29:21;102319.53;;;20.67;83.28
76358;BME280;65185;21.060;105.826;2023-11-19T01:31:48;102317.69;;;20.71;81.90
76358;BME280;65185;21.060;105.826;2023-11-19T01:34:17;102326.41;;;20.74;81.76
76358;BME280;65185;21.060;105.826;2023-11-19T01:36:44;102321.00;;;20.79;81.08
76358;BME280;65185;21.060;105.826;2023-11-19T01:39:12;102327.09;;;20.82;80.83
76358;BME280;65185;21.060;105.826;2023-11-19T01:41:42;102329.63;;;20.87;80.05
76358;BME280;65185;21.060;105.826;2023-11-19T01:44:09;102328.63;;;20.93;78.70
76358;BME280;65185;21.060;105.826;2023-11-19T01:46:38;102330.25;;;21.00;78.04
76358;BME280;65185;21.060;105.826;2023-11-19T01:49:07;102330.09;;;21.07;77.87
76358;BME280;65185;21.060;105.826;2023-11-19T01:51:35;102340.34;;;21.21;77.46
76358;BME280;65185;21.060;105.826;2023-11-19T01:54:02;102337.38;;;21.34;76.09
76358;BME280;65185;21.060;105.826;2023-11-19T01:56:29;102337.19;;;21.42;75.22
76358;BME280;65185;21.060;105.826;2023-11-19T01:58:57;102334.44;;;21.46;74.64
76358;BME280;65185;21.060;105.826;2023-11-19T02:01:24;102335.28;;;21.48;74.60
76358;BME280;65185;21.060;105.826;2023-11-19T02:03:52;102335.19;;;21.51;74.72
76358;BME280;65185;21.060;105.826;2023-11-19T02:06:19;102331.41;;;21.61;74.72
76358;BME280;65185;21.060;105.826;2023-11-19T02:08:45;102324.97;;;21.73;73.76
76358;BME280;65185;21.060;105.826;2023-11-19T02:11:12;102333.41;;;21.89;73.25
76358;BME280;65185;21.060;105.826;2023-11-19T02:13:40;102322.69;;;21.95;71.93
76358;BME280;65185;21.060;105.826;2023-11-19T02:16:07;102325.25;;;21.98;71.79
76358;BME280;65185;21.060;105.826;2023-11-19T02:18:37;102328.59;;;22.04;72.00
76358;BME280;65185;21.060;105.826;2023-11-19T02:21:03;102327.59;;;22.08;71.44
76358;BME280;65185;21.060;105.826;2023-11-19T02:23:31;102324.84;;;22.13;71.37
76358;BME280;65185;21.060;105.826;2023-11-19T02:28:25;102317.38;;;22.28;70.33
76358;BME280;65185;21.060;105.826;2023-11-19T02:30:54;102321.28;;;22.46;69.52
76358;BME280;65185;21.060;105.826;2023-11-19T02:33:21;102315.44;;;22.65;69.22
76358;BME280;65185;21.060;105.826;2023-11-19T02:35:49;102311.25;;;22.88;68.58
76358;BME280;65185;21.060;105.826;2023-11-19T02:40:43;102296.13;;;23.20;68.04
76358;BME280;65185;21.060;105.826;2023-11-19T02:43:10;102301.66;;;23.40;67.21
76358;BME280;65185;21.060;105.826;2023-11-19T02:45:36;102291.53;;;23.53;66.74
76358;BME280;65185;21.060;105.826;2023-11-19T02:48:03;102288.25;;;23.71;64.60
76358;BME280;65185;21.060;105.826;2023-11-19T02:50:32;102290.06;;;23.95;64.30
76358;BME280;65185;21.060;105.826;2023-11-19T02:52:59;102283.59;;;24.28;61.63
76358;BME280;65185;21.060;105.826;2023-11-19T02:55:27;102281.91;;;24.74;59.67
76358;BME280;65185;21.060;105.826;2023-11-19T02:57:56;102269.97;;;25.28;57.16
76358;BME280;65185;21.060;105.826;2023-11-19T03:00:25;102271.09;;;25.64;54.89
76358;BME280;65185;21.060;105.826;2023-11-19T03:03:03;102258.84;;;25.62;53.41
76358;BME280;65185;21.060;105.826;2023-11-19T03:05:46;102256.28;;;25.39;53.18
76358;BME280;65185;21.060;105.826;2023-11-19T03:08:16;102252.06;;;25.33;52.94
76358;BME280;65185;21.060;105.826;2023-11-19T03:10:43;102254.97;;;25.06;55.20
76358;BME280;65185;21.060;105.826;2023-11-19T03:13:12;102239.88;;;24.86;53.44
76358;BME280;65185;21.060;105.826;2023-11-19T03:15:43;102238.06;;;24.63;51.62
76358;BME280;65185;21.060;105.826;2023-11-19T03:18:10;102235.09;;;24.49;52.13
76358;BME280;65185;21.060;105.826;2023-11-19T03:20:37;102238.72;;;24.47;51.43
76358;BME280;65185;21.060;105.826;2023-11-19T03:23:03;102225.66;;;24.42;48.85
76358;BME280;65185;21.060;105.826;2023-11-19T03:25:31;102223.91;;;24.41;48.54
76358;BME280;65185;21.060;105.826;2023-11-19T03:28:03;102218.56;;;24.43;49.05
76358;BME280;65185;21.060;105.826;2023-11-19T03:30:31;102219.63;;;24.39;49.27
76358;BME280;65185;21.060;105.826;2023-11-19T03:32:59;102213.50;;;24.37;49.53
76358;BME280;65185;21.060;105.826;2023-11-19T03:35:29;102207.56;;;24.30;49.89
76358;BME280;65185;21.060;105.826;2023-11-19T03:37:56;102206.75;;;24.28;49.76
76358;BME280;65185;21.060;105.826;2023-11-19T03:40:23;102192.69;;;24.28;49.82
76358;BME280;65185;21.060;105.826;2023-11-19T03:42:51;102189.66;;;24.37;49.86
76358;BME280;65185;21.060;105.826;2023-11-19T03:45:18;102190.16;;;24.46;50.57
76358;BME280;65185;21.060;105.826;2023-11-19T03:47:45;102174.97;;;24.51;50.81
76358;BME280;65185;21.060;105.826;2023-11-19T03:50:11;102165.03;;;24.56;50.49
76358;BME280;65185;21.060;105.826;2023-11-19T03:52:38;102158.75;;;24.59;49.50
76358;BME280;65185;21.060;105.826;2023-11-19T03:55:05;102162.25;;;24.59;50.29
76358;BME280;65185;21.060;105.826;2023-11-19T03:57:35;102147.38;;;24.55;50.31
76358;BME280;65185;21.060;105.826;2023-11-19T04:00:02;102144.72;;;24.55;50.48
76358;BME280;65185;21.060;105.826;2023-11-19T04:02:35;102137.56;;;24.59;50.67
76358;BME280;65185;21.060;105.826;2023-11-19T04:05:02;102131.38;;;24.58;51.09
76358;BME280;65185;21.060;105.826;2023-11-19T04:07:31;102127.13;;;24.54;51.39
76358;BME280;65185;21.060;105.826;2023-11-19T04:09:58;102123.44;;;24.58;51.77
76358;BME280;65185;21.060;105.826;2023-11-19T04:12:25;102110.03;;;24.61;51.84
76358;BME280;65185;21.060;105.826;2023-11-19T04:14:52;102107.28;;;24.64;52.04
76358;BME280;65185;21.060;105.826;2023-11-19T04:17:19;102103.50;;;24.72;52.22
76358;BME280;65185;21.060;105.826;2023-11-19T04:19:46;102098.84;;;24.77;51.36
76358;BME280;65185;21.060;105.826;2023-11-19T04:22:13;102096.44;;;24.70;50.85
76358;BME280;65185;21.060;105.826;2023-11-19T04:24:40;102086.47;;;24.77;51.78
76358;BME280;65185;21.060;105.826;2023-11-19T04:27:07;102088.06;;;24.81;50.29
76358;BME280;65185;21.060;105.826;2023-11-19T04:29:34;102080.16;;;24.80;50.53
76358;BME280;65185;21.060;105.826;2023-11-19T04:32:01;102076.69;;;24.78;51.36
76358;BME280;65185;21.060;105.826;2023-11-19T04:34:28;102082.00;;;24.78;51.39
76358;BME280;65185;21.060;105.826;2023-11-19T04:36:54;102070.34;;;24.82;50.81
76358;BME280;65185;21.060;105.826;2023-11-19T04:39:21;102070.41;;;24.80;51.45
76358;BME280;65185;21.060;105.826;2023-11-19T04:41:49;102057.16;;;24.80;51.89
76358;BME280;65185;21.060;105.826;2023-11-19T04:44:17;102055.13;;;24.87;51.24
76358;BME280;65185;21.060;105.826;2023-11-19T04:46:45;102041.00;;;24.86;50.73
76358;BME280;65185;21.060;105.826;2023-11-19T04:49:15;102046.16;;;24.89;51.50
76358;BME280;65185;21.060;105.826;2023-11-19T04:51:45;102039.25;;;24.85;51.04
76358;BME280;65185;21.060;105.826;2023-11-19T04:54:14;102029.59;;;24.84;51.68
76358;BME280;65185;21.060;105.826;2023-11-19T04:56:45;102035.69;;;24.86;51.64
76358;BME280;65185;21.060;105.826;2023-11-19T04:59:15;102016.81;;;24.94;50.88
76358;BME280;65185;21.060;105.826;2023-11-19T05:01:47;102016.59;;;24.98;50.30
76358;BME280;65185;21.060;105.826;2023-11-19T05:04:14;102018.09;;;25.04;51.04
76358;BME280;65185;21.060;105.826;2023-11-19T05:06:41;102006.50;;;25.06;50.40
76358;BME280;65185;21.060;105.826;2023-11-19T05:09:08;101995.44;;;24.97;50.32
76358;BME280;65185;21.060;105.826;2023-11-19T05:11:35;101998.72;;;25.03;51.08
76358;BME280;65185;21.060;105.826;2023-11-19T05:14:05;101993.53;;;25.00;50.77
76358;BME280;65185;21.060;105.826;2023-11-19T05:16:32;101984.50;;;25.04;49.84
76358;BME280;65185;21.060;105.826;2023-11-19T05:18:59;101985.00;;;24.94;49.19
76358;BME280;65185;21.060;105.826;2023-11-19T05:21:25;101983.72;;;25.02;49.26
76358;BME280;65185;21.060;105.826;2023-11-19T05:23:52;101972.84;;;25.08;47.93
76358;BME280;65185;21.060;105.826;2023-11-19T05:26:21;101968.44;;;25.07;47.59
76358;BME280;65185;21.060;105.826;2023-11-19T05:28:49;101959.84;;;25.02;48.00
76358;BME280;65185;21.060;105.826;2023-11-19T05:31:17;101955.81;;;24.94;47.12
76358;BME280;65185;21.060;105.826;2023-11-19T05:33:44;101957.09;;;25.04;47.63
76358;BME280;65185;21.060;105.826;2023-11-19T05:36:12;101942.34;;;24.98;47.10
76358;BME280;65185;21.060;105.826;2023-11-19T05:38:40;101938.47;;;24.87;47.19
76358;BME280;65185;21.060;105.826;2023-11-19T05:41:07;101932.88;;;24.93;47.13
76358;BME280;65185;21.060;105.826;2023-11-19T05:43:37;101928.44;;;24.93;47.70
76358;BME280;65185;21.060;105.826;2023-11-19T05:46:07;101915.25;;;24.92;46.45
76358;BME280;65185;21.060;105.826;2023-11-19T05:48:34;101906.22;;;24.96;46.70
76358;BME280;65185;21.060;105.826;2023-11-19T05:51:01;101894.53;;;25.00;45.68
76358;BME280;65185;21.060;105.826;2023-11-19T05:53:29;101884.94;;;24.97;45.24
76358;BME280;65185;21.060;105.826;2023-11-19T05:55:57;101887.34;;;25.02;45.31
76358;BME280;65185;21.060;105.826;2023-11-19T05:58:27;101880.53;;;24.96;45.13
76358;BME280;65185;21.060;105.826;2023-11-19T06:00:55;101868.00;;;25.00;45.13
76358;BME280;65185;21.060;105.826;2023-11-19T06:03:22;101869.66;;;25.02;44.64
76358;BME280;65185;21.060;105.826;2023-11-19T06:05:50;101855.34;;;25.06;45.16
76358;BME280;65185;21.060;105.826;2023-11-19T06:08:17;101851.34;;;24.98;45.90
76358;BME280;65185;21.060;105.826;2023-11-19T06:10:44;101840.28;;;24.88;43.54
76358;BME280;65185;21.060;105.826;2023-11-19T06:13:16;101836.50;;;24.94;41.69
76358;BME280;65185;21.060;105.826;2023-11-19T06:15:43;101826.53;;;24.99;42.19
76358;BME280;65185;21.060;105.826;2023-11-19T06:18:10;101827.94;;;25.06;42.03
76358;BME280;65185;21.060;105.826;2023-11-19T06:20:41;101823.59;;;25.05;42.66
76358;BME280;65185;21.060;105.826;2023-11-19T06:23:08;101820.84;;;25.06;42.50
76358;BME280;65185;21.060;105.826;2023-11-19T06:25:35;101816.19;;;25.11;41.81
76358;BME280;65185;21.060;105.826;2023-11-19T06:28:02;101817.25;;;25.07;42.28
76358;BME280;65185;21.060;105.826;2023-11-19T06:30:31;101816.19;;;25.11;41.09
76358;BME280;65185;21.060;105.826;2023-11-19T06:32:58;101808.75;;;25.19;41.25
76358;BME280;65185;21.060;105.826;2023-11-19T06:35:25;101807.59;;;25.25;41.03
76358;BME280;65185;21.060;105.826;2023-11-19T06:37:52;101801.84;;;25.15;41.73
76358;BME280;65185;21.060;105.826;2023-11-19T06:40:19;101802.28;;;25.25;40.64
76358;BME280;65185;21.060;105.826;2023-11-19T06:42:46;101804.69;;;25.29;39.78
76358;BME280;65185;21.060;105.826;2023-11-19T06:45:13;101798.53;;;25.29;41.42
76358;BME280;65185;21.060;105.826;2023-11-19T06:47:40;101791.50;;;25.28;40.98
76358;BME280;65185;21.060;105.826;2023-11-19T06:50:07;101792.22;;;25.31;39.55
76358;BME280;65185;21.060;105.826;2023-11-19T06:52:35;101784.34;;;25.30;41.01
76358;BME280;65185;21.060;105.826;2023-11-19T06:55:03;101786.81;;;25.33;40.31
76358;BME280;65185;21.060;105.826;2023-11-19T06:57:30;101780.03;;;25.27;41.52
76358;BME280;65185;21.060;105.826;2023-11-19T06:59:58;101779.66;;;25.35;41.55
76358;BME280;65185;21.060;105.826;2023-11-19T07:02:25;101776.09;;;25.36;41.21
76358;BME280;65185;21.060;105.826;2023-11-19T07:04:52;101772.72;;;25.32;40.93
76358;BME280;65185;21.060;105.826;2023-11-19T07:07:20;101774.78;;;25.26;42.20
76358;BME280;65185;21.060;105.826;2023-11-19T07:09:47;101770.88;;;25.16;42.93
76358;BME280;65185;21.060;105.826;2023-11-19T07:12:14;101764.00;;;25.12;43.42
76358;BME280;65185;21.060;105.826;2023-11-19T07:14:41;101765.09;;;25.08;43.97
76358;BME280;65185;21.060;105.826;2023-11-19T07:17:08;101765.81;;;24.93;45.33
76358;BME280;65185;21.060;105.826;2023-11-19T07:19:36;101755.53;;;24.87;44.75
76358;BME280;65185;21.060;105.826;2023-11-19T07:22:04;101755.44;;;24.88;44.67
76358;BME280;65185;21.060;105.826;2023-11-19T07:24:32;101752.72;;;24.90;43.31
76358;BME280;65185;21.060;105.826;2023-11-19T07:26:59;101745.66;;;24.89;44.01
76358;BME280;65185;21.060;105.826;2023-11-19T07:29:25;101743.75;;;24.92;43.98
76358;BME280;65185;21.060;105.826;2023-11-19T07:31:52;101743.53;;;24.97;43.55
76358;BME280;65185;21.060;105.826;2023-11-19T07:34:20;101740.09;;;24.95;44.18
76358;BME280;65185;21.060;105.826;2023-11-19T07:36:48;101743.19;;;24.86;44.99
76358;BME280;65185;21.060;105.826;2023-11-19T07:39:16;101736.66;;;24.74;44.83
76358;BME280;65185;21.060;105.826;2023-11-19T07:41:43;101739.59;;;24.68;45.31
76358;BME280;65185;21.060;105.826;2023-11-19T07:44:10;101737.13;;;24.63;45.65
76358;BME280;65185;21.060;105.826;2023-11-19T07:46:37;101733.81;;;24.79;44.65
76358;BME280;65185;21.060;105.826;2023-11-19T07:49:05;101721.06;;;24.87;42.07
76358;BME280;65185;21.060;105.826;2023-11-19T07:51:32;101724.69;;;24.84;43.31
76358;BME280;65185;21.060;105.826;2023-11-19T07:53:59;101723.75;;;24.85;42.52
76358;BME280;65185;21.060;105.826;2023-11-19T07:56:27;101723.69;;;24.87;43.37
76358;BME280;65185;21.060;105.826;2023-11-19T07:58:54;101726.97;;;24.92;43.18
76358;BME280;65185;21.060;105.826;2023-11-19T08:01:21;101723.63;;;24.88;43.76
76358;BME280;65185;21.060;105.826;2023-11-19T08:03:50;101721.25;;;24.82;44.68
76358;BME280;65185;21.060;105.826;2023-11-19T08:06:17;101723.19;;;24.79;44.99
76358;BME280;65185;21.060;105.826;2023-11-19T08:08:44;101716.09;;;24.79;43.93
76358;BME280;65185;21.060;105.826;2023-11-19T08:11:11;101715.25;;;24.79;44.64
76358;BME280;65185;21.060;105.826;2023-11-19T08:13:39;101714.38;;;24.78;44.46
76358;BME280;65185;21.060;105.826;2023-11-19T08:16:07;101714.44;;;24.77;44.66
76358;BME280;65185;21.060;105.826;2023-11-19T08:18:36;101723.47;;;24.73;45.32
76358;BME280;65185;21.060;105.826;2023-11-19T08:21:03;101720.03;;;24.70;44.91
76358;BME280;65185;21.060;105.826;2023-11-19T08:23:31;101717.44;;;24.69;44.38
76358;BME280;65185;21.060;105.826;2023-11-19T08:25:58;101725.34;;;24.70;44.90
76358;BME280;65185;21.060;105.826;2023-11-19T08:28:26;101728.13;;;24.67;43.78
76358;BME280;65185;21.060;105.826;2023-11-19T08:30:53;101722.81;;;24.67;44.83
76358;BME280;65185;21.060;105.826;2023-11-19T08:33:21;101722.09;;;24.64;44.92
76358;BME280;65185;21.060;105.826;2023-11-19T08:35:49;101724.81;;;24.62;45.16
76358;BME280;65185;21.060;105.826;2023-11-19T08:38:16;101723.09;;;24.61;45.99
76358;BME280;65185;21.060;105.826;2023-11-19T08:40:43;101727.75;;;24.56;45.82
76358;BME280;65185;21.060;105.826;2023-11-19T08:43:10;101733.25;;;24.52;46.49
76358;BME280;65185;21.060;105.826;2023-11-19T08:45:37;101724.59;;;24.48;47.50
76358;BME280;65185;21.060;105.826;2023-11-19T08:48:05;101730.03;;;24.45;46.96
76358;BME280;65185;21.060;105.826;2023-11-19T08:50:32;101727.59;;;24.41;46.50
76358;BME280;65185;21.060;105.826;2023-11-19T08:53:00;101730.47;;;24.36;47.43
76358;BME280;65185;21.060;105.826;2023-11-19T08:55:27;101727.38;;;24.27;49.02
76358;BME280;65185;21.060;105.826;2023-11-19T08:57:54;101729.28;;;24.23;48.29
76358;BME280;65185;21.060;105.826;2023-11-19T09:00:21;101722.50;;;24.18;48.46
76358;BME280;65185;21.060;105.826;2023-11-19T09:02:48;101732.28;;;24.16;48.56
76358;BME280;65185;21.060;105.826;2023-11-19T09:05:19;101736.72;;;24.15;47.96
76358;BME280;65185;21.060;105.826;2023-11-19T09:07:46;101738.63;;;24.12;47.66
76358;BME280;65185;21.060;105.826;2023-11-19T09:10:16;101741.38;;;24.10;47.82
76358;BME280;65185;21.060;105.826;2023-11-19T09:12:43;101734.47;;;24.06;48.52
76358;BME280;65185;21.060;105.826;2023-11-19T09:15:10;101739.84;;;24.05;48.82
76358;BME280;65185;21.060;105.826;2023-11-19T09:17:38;101745.28;;;24.02;49.64
76358;BME280;65185;21.060;105.826;2023-11-19T09:20:09;101743.75;;;23.96;49.87
76358;BME280;65185;21.060;105.826;2023-11-19T09:22:42;101755.31;;;23.94;51.02
76358;BME280;65185;21.060;105.826;2023-11-19T09:25:13;101754.59;;;23.90;51.69
76358;BME280;65185;21.060;105.826;2023-11-19T09:27:44;101754.72;;;23.87;51.66
76358;BME280;65185;21.060;105.826;2023-11-19T09:30:12;101754.84;;;23.84;50.41
76358;BME280;65185;21.060;105.826;2023-11-19T09:32:39;101753.19;;;23.82;50.91
76358;BME280;65185;21.060;105.826;2023-11-19T09:35:06;101753.31;;;23.78;51.75
76358;BME280;65185;21.060;105.826;2023-11-19T09:37:33;101758.75;;;23.75;51.89
76358;BME280;65185;21.060;105.826;2023-11-19T09:40:01;101765.03;;;23.73;54.16
76358;BME280;65185;21.060;105.826;2023-11-19T09:42:28;101752.97;;;23.66;53.61
76358;BME280;65185;21.060;105.826;2023-11-19T09:44:56;101752.25;;;23.62;52.82
76358;BME280;65185;21.060;105.826;2023-11-19T09:47:25;101755.94;;;23.58;53.13
76358;BME280;65185;21.060;105.826;2023-11-19T09:49:54;101750.78;;;23.55;53.39
76358;BME280;65185;21.060;105.826;2023-11-19T09:52:21;101751.84;;;23.51;54.44
76358;BME280;65185;21.060;105.826;2023-11-19T09:54:48;101761.75;;;23.46;54.98
76358;BME280;65185;21.060;105.826;2023-11-19T09:57:22;101762.75;;;23.44;55.30
76358;BME280;65185;21.060;105.826;2023-11-19T09:59:50;101762.94;;;23.39;55.77
76358;BME280;65185;21.060;105.826;2023-11-19T10:02:19;101766.56;;;23.37;56.33
76358;BME280;65185;21.060;105.826;2023-11-19T10:04:47;101765.84;;;23.33;56.16
76358;BME280;65185;21.060;105.826;2023-11-19T10:07:15;101765.09;;;23.30;56.38
76358;BME280;65185;21.060;105.826;2023-11-19T10:09:42;101762.50;;;23.28;56.27
76358;BME280;65185;21.060;105.826;2023-11-19T10:12:09;101776.75;;;23.24;56.27
76358;BME280;65185;21.060;105.826;2023-11-19T10:14:38;101774.28;;;23.20;56.91
76358;BME280;65185;21.060;105.826;2023-11-19T10:17:09;101779.69;;;23.17;58.01
76358;BME280;65185;21.060;105.826;2023-11-19T10:19:40;101778.91;;;23.15;58.31
76358;BME280;65185;21.060;105.826;2023-11-19T10:22:08;101780.88;;;23.10;59.09
76358;BME280;65185;21.060;105.826;2023-11-19T10:24:35;101777.56;;;23.05;59.17
76358;BME280;65185;21.060;105.826;2023-11-19T10:27:07;101774.22;;;23.00;59.20
76358;BME280;65185;21.060;105.826;2023-11-19T10:29:38;101772.56;;;22.97;59.41
76358;BME280;65185;21.060;105.826;2023-11-19T10:32:05;101776.03;;;22.98;59.33
76358;BME280;65185;21.060;105.826;2023-11-19T10:34:32;101778.03;;;22.93;59.73
76358;BME280;65185;21.060;105.826;2023-11-19T10:36:59;101788.66;;;22.91;59.29
76358;BME280;65185;21.060;105.826;2023-11-19T10:39:52;101787.78;;;22.91;59.63
76358;BME280;65185;21.060;105.826;2023-11-19T10:42:23;101787.91;;;22.88;59.97
76358;BME280;65185;21.060;105.826;2023-11-19T10:44:50;101791.47;;;22.87;60.00
76358;BME280;65185;21.060;105.826;2023-11-19T10:47:23;101793.28;;;22.85;59.97
76358;BME280;65185;21.060;105.826;2023-11-19T10:49:50;101787.28;;;22.81;59.94
76358;BME280;65185;21.060;105.826;2023-11-19T10:52:20;101785.63;;;22.78;60.38
76358;BME280;65185;21.060;105.826;2023-11-19T10:54:51;101784.75;;;22.78;60.76
76358;BME280;65185;21.060;105.826;2023-11-19T10:57:24;101789.25;;;22.76;60.92
76358;BME280;65185;21.060;105.826;2023-11-19T11:00:01;101794.59;;;22.74;61.22
76358;BME280;65185;21.060;105.826;2023-11-19T11:02:31;101789.31;;;22.74;61.10
76358;BME280;65185;21.060;105.826;2023-11-19T11:05:00;101786.81;;;22.70;60.67
76358;BME280;65185;21.060;105.826;2023-11-19T11:07:31;101778.84;;;22.71;61.22
76358;BME280;65185;21.060;105.826;2023-11-19T11:10:00;101787.81;;;22.67;61.82
76358;BME280;65185;21.060;105.826;2023-11-19T11:12:28;101785.19;;;22.67;62.05
76358;BME280;65185;21.060;105.826;2023-11-19T11:14:58;101786.06;;;22.66;62.13
76358;BME280;65185;21.060;105.826;2023-11-19T11:17:28;101788.78;;;22.65;62.57
76358;BME280;65185;21.060;105.826;2023-11-19T11:19:58;101782.69;;;22.63;62.39
76358;BME280;65185;21.060;105.826;2023-11-19T11:22:28;101792.38;;;22.62;62.26
76358;BME280;65185;21.060;105.826;2023-11-19T11:34:04;101800.50;;;22.58;63.11
76358;BME280;65185;21.060;105.826;2023-11-19T11:36:41;101790.91;;;22.55;63.16
76358;BME280;65185;21.060;105.826;2023-11-19T11:39:12;101795.28;;;22.56;63.46
76358;BME280;65185;21.060;105.826;2023-11-19T11:41:40;101798.81;;;22.55;63.49
76358;BME280;65185;21.060;105.826;2023-11-19T11:44:07;101800.59;;;22.55;63.15
76358;BME280;65185;21.060;105.826;2023-11-19T11:49:06;101804.13;;;22.54;63.34
76358;BME280;65185;21.060;105.826;2023-11-19T12:02:11;101822.06;;;22.46;64.10
76358;BME280;65185;21.060;105.826;2023-11-19T12:04:41;101819.44;;;22.44;64.38
76358;BME280;65185;21.060;105.826;2023-11-19T12:07:19;101828.38;;;22.42;65.03
76358;BME280;65185;21.060;105.826;2023-11-19T12:10:09;101839.69;;;22.45;65.81
76358;BME280;65185;21.060;105.826;2023-11-19T12:12:41;101844.91;;;22.47;67.73
76358;BME280;65185;21.060;105.826;2023-11-19T12:15:09;101844.97;;;22.45;68.15
76358;BME280;65185;21.060;105.826;2023-11-19T12:17:46;101842.31;;;22.45;69.47
76358;BME280;65185;21.060;105.826;2023-11-19T12:20:23;101838.13;;;22.40;70.93
76358;BME280;65185;21.060;105.826;2023-11-19T12:22:51;101847.00;;;22.37;72.22
76358;BME280;65185;21.060;105.826;2023-11-19T12:25:20;101848.84;;;22.35;72.87
76358;BME280;65185;21.060;105.826;2023-11-19T12:27:51;101855.84;;;22.36;73.55
76358;BME280;65185;21.060;105.826;2023-11-19T12:30:22;101857.69;;;22.34;74.24
76358;BME280;65185;21.060;105.826;2023-11-19T12:32:50;101860.38;;;22.33;74.79
76358;BME280;65185;21.060;105.826;2023-11-19T12:35:19;101858.69;;;22.30;74.88
76358;BME280;65185;21.060;105.826;2023-11-19T12:37:48;101855.25;;;22.28;75.42
76358;BME280;65185;21.060;105.826;2023-11-19T12:40:20;101859.66;;;22.28;75.49
76358;BME280;65185;21.060;105.826;2023-11-19T12:42:51;101869.41;;;22.26;75.98
76358;BME280;65185;21.060;105.826;2023-11-19T12:45:19;101862.53;;;22.22;76.28
76358;BME280;65185;21.060;105.826;2023-11-19T12:47:48;101864.38;;;22.20;75.96
76358;BME280;65185;21.060;105.826;2023-11-19T12:50:17;101879.38;;;22.18;75.69
76358;BME280;65185;21.060;105.826;2023-11-19T12:52:58;101872.44;;;22.15;75.76
76358;BME280;65185;21.060;105.826;2023-11-19T12:55:31;101869.91;;;22.12;75.39
76358;BME280;65185;21.060;105.826;2023-11-19T12:57:59;101876.06;;;22.11;75.60
76358;BME280;65185;21.060;105.826;2023-11-19T13:00:27;101873.50;;;22.10;75.76
76358;BME280;65185;21.060;105.826;2023-11-19T13:02:56;101886.75;;;22.08;75.80